sensor_id;sensor_type;location;lat;lon;timestamp;P1;durP1;ratioP1;P2;durP2;ratioP2
13026;SDS011;6580;42.680;23.324;2023-04-01T00:01:27;13.70;;;9.07;;
13026;SDS011;6580;42.680;23.324;2023-04-01T00:04:14;15.07;;;10.00;;
13026;SDS011;6580;42.680;23.324;2023-04-01T00:07:02;13.53;;;9.87;;
13026;SDS011;6580;42.680;23.324;2023-04-01T00:09:49;14.93;;;11.03;;
13026;SDS011;6580;42.680;23.324;2023-04-01T00:12:34;15.03;;;10.10;;
13026;SDS011;6580;42.680;23.324;2023-04-01T00:15:20;16.23;;;11.67;;
13026;SDS011;6580;42.680;23.324;2023-04-01T00:18:05;16.97;;;11.20;;
13026;SDS011;6580;42.680;23.324;2023-04-01T00:20:51;13.70;;;11.10;;
13026;SDS011;6580;42.680;23.324;2023-04-01T00:23:38;14.93;;;9.27;;
13026;SDS011;6580;42.680;23.324;2023-04-01T00:26:24;14.53;;;10.20;;
13026;SDS011;6580;42.680;23.324;2023-04-01T00:29:10;16.00;;;10.43;;
13026;SDS011;6580;42.680;23.324;2023-04-01T00:31:55;13.93;;;9.77;;
13026;SDS011;6580;42.680;23.324;2023-04-01T00:34:41;10.97;;;8.80;;
13026;SDS011;6580;42.680;23.324;2023-04-01T00:37:28;14.37;;;9.57;;
13026;SDS011;6580;42.680;23.324;2023-04-01T00:40:22;11.77;;;9.43;;
13026;SDS011;6580;42.680;23.324;2023-04-01T00:43:11;14.63;;;9.80;;
13026;SDS011;6580;42.680;23.324;2023-04-01T00:45:57;16.70;;;10.00;;
13026;SDS011;6580;42.680;23.324;2023-04-01T00:48:43;12.63;;;9.53;;
13026;SDS011;6580;42.680;23.324;2023-04-01T00:51:31;14.47;;;9.23;;
13026;SDS011;6580;42.680;23.324;2023-04-01T00:54:20;14.00;;;9.60;;
13026;SDS011;6580;42.680;23.324;2023-04-01T00:57:11;14.30;;;9.43;;
13026;SDS011;6580;42.680;23.324;2023-04-01T01:00:03;11.20;;;8.17;;
13026;SDS011;6580;42.680;23.324;2023-04-01T01:02:52;11.03;;;8.60;;
13026;SDS011;6580;42.680;23.324;2023-04-01T01:05:42;12.83;;;9.57;;
13026;SDS011;6580;42.680;23.324;2023-04-01T01:08:50;8.57;;;7.67;;
13026;SDS011;6580;42.680;23.324;2023-04-01T01:11:48;12.43;;;8.43;;
13026;SDS011;6580;42.680;23.324;2023-04-01T01:14:44;13.90;;;8.00;;
13026;SDS011;6580;42.680;23.324;2023-04-01T01:17:40;10.37;;;7.77;;
13026;SDS011;6580;42.680;23.324;2023-04-01T01:20:40;10.40;;;7.33;;
13026;SDS011;6580;42.680;23.324;2023-04-01T01:24:11;11.03;;;7.20;;
13026;SDS011;6580;42.680;23.324;2023-04-01T01:27:07;11.43;;;6.87;;
13026;SDS011;6580;42.680;23.324;2023-04-01T01:30:09;8.67;;;6.23;;
13026;SDS011;6580;42.680;23.324;2023-04-01T01:33:13;7.80;;;6.37;;
13026;SDS011;6580;42.680;23.324;2023-04-01T01:36:10;9.60;;;6.30;;
13026;SDS011;6580;42.680;23.324;2023-04-01T01:38:58;10.50;;;6.67;;
13026;SDS011;6580;42.680;23.324;2023-04-01T01:41:44;7.90;;;5.47;;
13026;SDS011;6580;42.680;23.324;2023-04-01T01:44:33;7.00;;;6.20;;
13026;SDS011;6580;42.680;23.324;2023-04-01T01:47:20;7.20;;;6.10;;
13026;SDS011;6580;42.680;23.324;2023-04-01T01:50:08;7.10;;;5.60;;
13026;SDS011;6580;42.680;23.324;2023-04-01T01:53:04;12.13;;;5.77;;
13026;SDS011;6580;42.680;23.324;2023-04-01T01:55:52;9.00;;;5.33;;
13026;SDS011;6580;42.680;23.324;2023-04-01T01:58:37;8.00;;;5.83;;
13026;SDS011;6580;42.680;23.324;2023-04-01T02:01:26;6.67;;;5.13;;
13026;SDS011;6580;42.680;23.324;2023-04-01T02:04:16;7.73;;;4.90;;
13026;SDS011;6580;42.680;23.324;2023-04-01T02:07:04;8.30;;;5.17;;
13026;SDS011;6580;42.680;23.324;2023-04-01T02:09:56;7.33;;;5.60;;
13026;SDS011;6580;42.680;23.324;2023-04-01T02:12:42;6.57;;;5.90;;
13026;SDS011;6580;42.680;23.324;2023-04-01T02:15:31;6.47;;;5.20;;
13026;SDS011;6580;42.680;23.324;2023-04-01T02:18:22;6.50;;;5.70;;
13026;SDS011;6580;42.680;23.324;2023-04-01T02:21:09;9.27;;;6.00;;
13026;SDS011;6580;42.680;23.324;2023-04-01T02:23:56;8.47;;;5.93;;
13026;SDS011;6580;42.680;23.324;2023-04-01T02:26:45;7.53;;;5.73;;
13026;SDS011;6580;42.680;23.324;2023-04-01T02:29:31;7.33;;;5.67;;
13026;SDS011;6580;42.680;23.324;2023-04-01T02:32:17;6.33;;;5.10;;
13026;SDS011;6580;42.680;23.324;2023-04-01T02:35:05;6.17;;;5.40;;
13026;SDS011;6580;42.680;23.324;2023-04-01T02:37:52;11.23;;;7.50;;
13026;SDS011;6580;42.680;23.324;2023-04-01T02:40:42;7.73;;;6.27;;
13026;SDS011;6580;42.680;23.324;2023-04-01T02:43:32;7.17;;;5.77;;
13026;SDS011;6580;42.680;23.324;2023-04-01T02:46:18;8.27;;;5.70;;
13026;SDS011;6580;42.680;23.324;2023-04-01T02:49:06;9.33;;;6.23;;
13026;SDS011;6580;42.680;23.324;2023-04-01T02:51:51;6.53;;;5.53;;
13026;SDS011;6580;42.680;23.324;2023-04-01T02:54:37;7.73;;;5.97;;
13026;SDS011;6580;42.680;23.324;2023-04-01T02:57:23;8.63;;;6.10;;
13026;SDS011;6580;42.680;23.324;2023-04-01T03:00:11;9.23;;;5.90;;
13026;SDS011;6580;42.680;23.324;2023-04-01T03:02:57;9.10;;;5.03;;
13026;SDS011;6580;42.680;23.324;2023-04-01T03:05:43;8.27;;;6.67;;
13026;SDS011;6580;42.680;23.324;2023-04-01T03:08:28;8.83;;;6.40;;
13026;SDS011;6580;42.680;23.324;2023-04-01T03:11:14;11.37;;;6.40;;
13026;SDS011;6580;42.680;23.324;2023-04-01T03:14:00;7.93;;;5.83;;
13026;SDS011;6580;42.680;23.324;2023-04-01T03:16:47;9.43;;;6.50;;
13026;SDS011;6580;42.680;23.324;2023-04-01T03:19:32;7.07;;;5.70;;
13026;SDS011;6580;42.680;23.324;2023-04-01T03:22:18;9.50;;;6.90;;
13026;SDS011;6580;42.680;23.324;2023-04-01T03:25:05;8.20;;;6.73;;
13026;SDS011;6580;42.680;23.324;2023-04-01T03:27:51;9.30;;;7.00;;
13026;SDS011;6580;42.680;23.324;2023-04-01T03:30:37;9.20;;;6.50;;
13026;SDS011;6580;42.680;23.324;2023-04-01T03:33:24;11.40;;;7.57;;
13026;SDS011;6580;42.680;23.324;2023-04-01T03:36:11;8.13;;;7.33;;
13026;SDS011;6580;42.680;23.324;2023-04-01T03:38:58;10.00;;;7.63;;
13026;SDS011;6580;42.680;23.324;2023-04-01T03:41:43;11.00;;;7.23;;
13026;SDS011;6580;42.680;23.324;2023-04-01T03:44:30;9.27;;;7.63;;
13026;SDS011;6580;42.680;23.324;2023-04-01T03:47:16;11.80;;;7.63;;
13026;SDS011;6580;42.680;23.324;2023-04-01T03:50:03;10.30;;;7.43;;
13026;SDS011;6580;42.680;23.324;2023-04-01T03:52:49;9.90;;;7.57;;
13026;SDS011;6580;42.680;23.324;2023-04-01T03:55:35;9.73;;;6.80;;
13026;SDS011;6580;42.680;23.324;2023-04-01T03:58:21;9.10;;;6.57;;
13026;SDS011;6580;42.680;23.324;2023-04-01T04:01:13;9.37;;;6.77;;
13026;SDS011;6580;42.680;23.324;2023-04-01T04:04:00;9.77;;;6.93;;
13026;SDS011;6580;42.680;23.324;2023-04-01T04:06:47;8.23;;;6.60;;
13026;SDS011;6580;42.680;23.324;2023-04-01T04:09:32;11.87;;;6.63;;
13026;SDS011;6580;42.680;23.324;2023-04-01T04:12:18;8.93;;;6.13;;
13026;SDS011;6580;42.680;23.324;2023-04-01T04:15:06;9.57;;;6.60;;
13026;SDS011;6580;42.680;23.324;2023-04-01T04:17:51;9.47;;;7.13;;
13026;SDS011;6580;42.680;23.324;2023-04-01T04:20:37;10.00;;;7.23;;
13026;SDS011;6580;42.680;23.324;2023-04-01T04:23:30;10.87;;;7.20;;
13026;SDS011;6580;42.680;23.324;2023-04-01T04:26:17;7.47;;;5.83;;
13026;SDS011;6580;42.680;23.324;2023-04-01T04:29:02;8.13;;;6.30;;
13026;SDS011;6580;42.680;23.324;2023-04-01T04:31:52;8.87;;;6.57;;
13026;SDS011;6580;42.680;23.324;2023-04-01T04:34:38;9.87;;;6.63;;
13026;SDS011;6580;42.680;23.324;2023-04-01T04:37:24;10.27;;;6.00;;
13026;SDS011;6580;42.680;23.324;2023-04-01T04:40:11;7.63;;;6.10;;
13026;SDS011;6580;42.680;23.324;2023-04-01T04:42:56;7.40;;;6.63;;
13026;SDS011;6580;42.680;23.324;2023-04-01T04:45:42;10.23;;;6.87;;
13026;SDS011;6580;42.680;23.324;2023-04-01T04:48:29;8.37;;;6.80;;
13026;SDS011;6580;42.680;23.324;2023-04-01T04:51:14;9.13;;;6.30;;
13026;SDS011;6580;42.680;23.324;2023-04-01T04:54:00;8.03;;;6.20;;
13026;SDS011;6580;42.680;23.324;2023-04-01T04:56:48;8.47;;;6.10;;
13026;SDS011;6580;42.680;23.324;2023-04-01T04:59:35;9.37;;;7.93;;
13026;SDS011;6580;42.680;23.324;2023-04-01T05:02:22;9.13;;;6.00;;
13026;SDS011;6580;42.680;23.324;2023-04-01T05:05:07;9.17;;;6.23;;
13026;SDS011;6580;42.680;23.324;2023-04-01T05:07:54;6.67;;;5.40;;
13026;SDS011;6580;42.680;23.324;2023-04-01T05:10:40;8.30;;;5.83;;
13026;SDS011;6580;42.680;23.324;2023-04-01T05:13:27;10.07;;;6.53;;
13026;SDS011;6580;42.680;23.324;2023-04-01T05:16:13;8.10;;;6.37;;
13026;SDS011;6580;42.680;23.324;2023-04-01T05:18:59;7.67;;;6.20;;
13026;SDS011;6580;42.680;23.324;2023-04-01T05:21:45;6.80;;;5.60;;
13026;SDS011;6580;42.680;23.324;2023-04-01T05:24:30;9.63;;;6.60;;
13026;SDS011;6580;42.680;23.324;2023-04-01T05:27:18;10.10;;;7.00;;
13026;SDS011;6580;42.680;23.324;2023-04-01T05:30:06;7.63;;;5.97;;
13026;SDS011;6580;42.680;23.324;2023-04-01T05:32:52;8.20;;;5.57;;
13026;SDS011;6580;42.680;23.324;2023-04-01T05:35:38;9.20;;;7.03;;
13026;SDS011;6580;42.680;23.324;2023-04-01T05:38:25;8.33;;;7.00;;
13026;SDS011;6580;42.680;23.324;2023-04-01T05:41:13;9.00;;;6.03;;
13026;SDS011;6580;42.680;23.324;2023-04-01T05:44:00;10.10;;;5.67;;
13026;SDS011;6580;42.680;23.324;2023-04-01T05:46:47;7.03;;;5.40;;
13026;SDS011;6580;42.680;23.324;2023-04-01T05:49:33;9.37;;;5.53;;
13026;SDS011;6580;42.680;23.324;2023-04-01T05:52:18;6.77;;;5.20;;
13026;SDS011;6580;42.680;23.324;2023-04-01T05:55:04;9.00;;;5.20;;
13026;SDS011;6580;42.680;23.324;2023-04-01T05:57:50;7.17;;;5.57;;
13026;SDS011;6580;42.680;23.324;2023-04-01T06:00:36;5.93;;;4.53;;
13026;SDS011;6580;42.680;23.324;2023-04-01T06:03:22;5.38;;;4.60;;
13026;SDS011;6580;42.680;23.324;2023-04-01T06:06:11;6.55;;;4.43;;
13026;SDS011;6580;42.680;23.324;2023-04-01T06:09:04;5.50;;;4.60;;
13026;SDS011;6580;42.680;23.324;2023-04-01T06:12:10;5.07;;;4.30;;
13026;SDS011;6580;42.680;23.324;2023-04-01T06:15:23;5.95;;;4.82;;
13026;SDS011;6580;42.680;23.324;2023-04-01T06:18:30;6.32;;;4.47;;
13026;SDS011;6580;42.680;23.324;2023-04-01T06:24:54;4.40;;;3.60;;
13026;SDS011;6580;42.680;23.324;2023-04-01T06:28:17;5.18;;;4.20;;
13026;SDS011;6580;42.680;23.324;2023-04-01T06:31:40;4.10;;;3.80;;
13026;SDS011;6580;42.680;23.324;2023-04-01T06:34:44;6.82;;;3.55;;
13026;SDS011;6580;42.680;23.324;2023-04-01T06:37:46;3.97;;;3.40;;
13026;SDS011;6580;42.680;23.324;2023-04-01T06:40:56;4.60;;;4.00;;
13026;SDS011;6580;42.680;23.324;2023-04-01T06:43:53;5.43;;;4.23;;
13026;SDS011;6580;42.680;23.324;2023-04-01T06:46:44;4.50;;;4.05;;
13026;SDS011;6580;42.680;23.324;2023-04-01T06:49:46;4.60;;;4.20;;
13026;SDS011;6580;42.680;23.324;2023-04-01T06:52:43;7.17;;;4.03;;
13026;SDS011;6580;42.680;23.324;2023-04-01T06:55:38;7.23;;;4.70;;
13026;SDS011;6580;42.680;23.324;2023-04-01T06:58:27;7.97;;;4.57;;
13026;SDS011;6580;42.680;23.324;2023-04-01T07:01:21;5.30;;;4.23;;
13026;SDS011;6580;42.680;23.324;2023-04-01T07:04:10;5.60;;;4.53;;
13026;SDS011;6580;42.680;23.324;2023-04-01T07:07:04;5.53;;;4.73;;
13026;SDS011;6580;42.680;23.324;2023-04-01T07:09:55;7.03;;;4.60;;
13026;SDS011;6580;42.680;23.324;2023-04-01T07:12:46;4.73;;;4.30;;
13026;SDS011;6580;42.680;23.324;2023-04-01T07:15:37;8.73;;;4.60;;
13026;SDS011;6580;42.680;23.324;2023-04-01T07:18:29;5.10;;;4.47;;
13026;SDS011;6580;42.680;23.324;2023-04-01T07:21:28;7.37;;;4.70;;
13026;SDS011;6580;42.680;23.324;2023-04-01T07:24:21;7.43;;;5.03;;
13026;SDS011;6580;42.680;23.324;2023-04-01T07:27:11;7.13;;;4.30;;
13026;SDS011;6580;42.680;23.324;2023-04-01T07:29:57;8.77;;;4.10;;
13026;SDS011;6580;42.680;23.324;2023-04-01T07:32:44;5.03;;;4.40;;
13026;SDS011;6580;42.680;23.324;2023-04-01T07:35:34;6.80;;;4.00;;
13026;SDS011;6580;42.680;23.324;2023-04-01T07:38:26;8.50;;;4.70;;
13026;SDS011;6580;42.680;23.324;2023-04-01T07:41:22;6.73;;;4.70;;
13026;SDS011;6580;42.680;23.324;2023-04-01T07:44:14;5.00;;;4.50;;
13026;SDS011;6580;42.680;23.324;2023-04-01T07:47:07;6.03;;;4.20;;
13026;SDS011;6580;42.680;23.324;2023-04-01T07:50:02;7.83;;;5.00;;
13026;SDS011;6580;42.680;23.324;2023-04-01T07:52:59;5.17;;;4.20;;
13026;SDS011;6580;42.680;23.324;2023-04-01T07:55:54;6.93;;;4.97;;
13026;SDS011;6580;42.680;23.324;2023-04-01T07:58:51;7.37;;;5.67;;
13026;SDS011;6580;42.680;23.324;2023-04-01T08:01:43;6.43;;;4.50;;
13026;SDS011;6580;42.680;23.324;2023-04-01T08:04:36;6.77;;;4.87;;
13026;SDS011;6580;42.680;23.324;2023-04-01T08:07:33;8.87;;;6.30;;
13026;SDS011;6580;42.680;23.324;2023-04-01T08:10:27;6.40;;;5.17;;
13026;SDS011;6580;42.680;23.324;2023-04-01T08:13:20;5.90;;;4.70;;
13026;SDS011;6580;42.680;23.324;2023-04-01T08:16:17;8.15;;;4.72;;
13026;SDS011;6580;42.680;23.324;2023-04-01T08:19:11;5.13;;;4.63;;
13026;SDS011;6580;42.680;23.324;2023-04-01T08:22:04;6.43;;;4.43;;
13026;SDS011;6580;42.680;23.324;2023-04-01T08:24:56;6.67;;;4.80;;
13026;SDS011;6580;42.680;23.324;2023-04-01T08:27:47;8.07;;;4.40;;
13026;SDS011;6580;42.680;23.324;2023-04-01T08:30:37;7.55;;;4.65;;
13026;SDS011;6580;42.680;23.324;2023-04-01T08:33:28;7.40;;;5.55;;
13026;SDS011;6580;42.680;23.324;2023-04-01T08:36:16;6.75;;;4.25;;
13026;SDS011;6580;42.680;23.324;2023-04-01T08:39:06;7.35;;;4.90;;
13026;SDS011;6580;42.680;23.324;2023-04-01T08:41:59;5.72;;;3.95;;
13026;SDS011;6580;42.680;23.324;2023-04-01T08:45:10;4.97;;;4.20;;
13026;SDS011;6580;42.680;23.324;2023-04-01T08:48:29;5.38;;;4.22;;
13026;SDS011;6580;42.680;23.324;2023-04-01T08:51:42;5.85;;;3.80;;
13026;SDS011;6580;42.680;23.324;2023-04-01T08:58:13;5.55;;;4.80;;
13026;SDS011;6580;42.680;23.324;2023-04-01T09:01:19;5.18;;;4.05;;
13026;SDS011;6580;42.680;23.324;2023-04-01T09:04:20;6.15;;;4.15;;
13026;SDS011;6580;42.680;23.324;2023-04-01T09:07:19;5.68;;;4.00;;
13026;SDS011;6580;42.680;23.324;2023-04-01T09:10:30;7.45;;;3.10;;
13026;SDS011;6580;42.680;23.324;2023-04-01T09:17:06;7.70;;;3.70;;
13026;SDS011;6580;42.680;23.324;2023-04-01T09:20:09;4.00;;;3.58;;
13026;SDS011;6580;42.680;23.324;2023-04-01T09:23:13;4.10;;;3.50;;
13026;SDS011;6580;42.680;23.324;2023-04-01T09:26:15;6.07;;;4.05;;
13026;SDS011;6580;42.680;23.324;2023-04-01T09:29:13;3.92;;;3.38;;
13026;SDS011;6580;42.680;23.324;2023-04-01T09:32:17;3.65;;;3.10;;
13026;SDS011;6580;42.680;23.324;2023-04-01T09:35:25;3.95;;;3.17;;
13026;SDS011;6580;42.680;23.324;2023-04-01T09:38:27;3.88;;;3.00;;
13026;SDS011;6580;42.680;23.324;2023-04-01T09:41:16;4.32;;;3.03;;
13026;SDS011;6580;42.680;23.324;2023-04-01T09:44:11;3.22;;;2.92;;
13026;SDS011;6580;42.680;23.324;2023-04-01T09:47:08;4.10;;;2.78;;
13026;SDS011;6580;42.680;23.324;2023-04-01T09:53:32;4.95;;;3.05;;
13026;SDS011;6580;42.680;23.324;2023-04-01T10:13:59;5.57;;;3.53;;
13026;SDS011;6580;42.680;23.324;2023-04-01T10:17:17;3.90;;;3.00;;
13026;SDS011;6580;42.680;23.324;2023-04-01T10:20:41;3.95;;;2.72;;
13026;SDS011;6580;42.680;23.324;2023-04-01T10:30:56;4.18;;;3.78;;
13026;SDS011;6580;42.680;23.324;2023-04-01T10:34:23;4.43;;;3.05;;
13026;SDS011;6580;42.680;23.324;2023-04-01T10:41:13;3.78;;;3.30;;
13026;SDS011;6580;42.680;23.324;2023-04-01T10:44:41;5.97;;;3.25;;
13026;SDS011;6580;42.680;23.324;2023-04-01T10:48:01;5.85;;;3.78;;
13026;SDS011;6580;42.680;23.324;2023-04-01T10:51:04;4.18;;;3.17;;
13026;SDS011;6580;42.680;23.324;2023-04-01T10:57:36;4.30;;;3.60;;
13026;SDS011;6580;42.680;23.324;2023-04-01T11:00:55;4.40;;;3.30;;
13026;SDS011;6580;42.680;23.324;2023-04-01T11:14:26;6.30;;;4.03;;
13026;SDS011;6580;42.680;23.324;2023-04-01T11:21:03;5.82;;;4.28;;
13026;SDS011;6580;42.680;23.324;2023-04-01T11:24:26;9.15;;;6.30;;
13026;SDS011;6580;42.680;23.324;2023-04-01T11:27:45;5.32;;;4.00;;
13026;SDS011;6580;42.680;23.324;2023-04-01T11:30:43;7.50;;;5.28;;
13026;SDS011;6580;42.680;23.324;2023-04-01T11:33:41;3.30;;;2.47;;
13026;SDS011;6580;42.680;23.324;2023-04-01T11:36:35;3.80;;;2.63;;
13026;SDS011;6580;42.680;23.324;2023-04-01T11:39:32;4.75;;;2.40;;
13026;SDS011;6580;42.680;23.324;2023-04-01T11:42:28;2.83;;;2.47;;
13026;SDS011;6580;42.680;23.324;2023-04-01T11:45:28;5.35;;;3.28;;
13026;SDS011;6580;42.680;23.324;2023-04-01T11:48:23;7.18;;;3.15;;
13026;SDS011;6580;42.680;23.324;2023-04-01T11:54:42;4.17;;;2.77;;
13026;SDS011;6580;42.680;23.324;2023-04-01T11:57:43;4.90;;;2.70;;
13026;SDS011;6580;42.680;23.324;2023-04-01T12:07:45;4.87;;;3.20;;
13026;SDS011;6580;42.680;23.324;2023-04-01T12:10:41;8.07;;;3.17;;
13026;SDS011;6580;42.680;23.324;2023-04-01T12:13:36;3.97;;;3.37;;
13026;SDS011;6580;42.680;23.324;2023-04-01T12:16:29;5.40;;;3.83;;
13026;SDS011;6580;42.680;23.324;2023-04-01T12:19:28;4.80;;;3.40;;
13026;SDS011;6580;42.680;23.324;2023-04-01T12:22:37;4.33;;;3.37;;
13026;SDS011;6580;42.680;23.324;2023-04-01T12:25:42;28.17;;;12.73;;
13026;SDS011;6580;42.680;23.324;2023-04-01T12:28:48;18.40;;;9.57;;
13026;SDS011;6580;42.680;23.324;2023-04-01T12:31:51;7.43;;;4.70;;
13026;SDS011;6580;42.680;23.324;2023-04-01T12:34:55;4.37;;;3.97;;
13026;SDS011;6580;42.680;23.324;2023-04-01T12:37:55;5.43;;;4.37;;
13026;SDS011;6580;42.680;23.324;2023-04-01T12:47:40;6.60;;;3.60;;
13026;SDS011;6580;42.680;23.324;2023-04-01T12:50:58;5.50;;;3.90;;
13026;SDS011;6580;42.680;23.324;2023-04-01T13:01:07;4.43;;;4.03;;
13026;SDS011;6580;42.680;23.324;2023-04-01T13:04:37;4.03;;;3.63;;
13026;SDS011;6580;42.680;23.324;2023-04-01T13:07:36;6.23;;;3.70;;
13026;SDS011;6580;42.680;23.324;2023-04-01T13:10:49;9.30;;;4.77;;
13026;SDS011;6580;42.680;23.324;2023-04-01T13:17:15;4.40;;;3.80;;
13026;SDS011;6580;42.680;23.324;2023-04-01T13:20:11;4.43;;;3.27;;
13026;SDS011;6580;42.680;23.324;2023-04-01T13:23:05;6.10;;;3.77;;
13026;SDS011;6580;42.680;23.324;2023-04-01T13:26:07;4.07;;;3.70;;
13026;SDS011;6580;42.680;23.324;2023-04-01T13:29:04;6.30;;;3.90;;
13026;SDS011;6580;42.680;23.324;2023-04-01T13:32:02;3.63;;;3.27;;
13026;SDS011;6580;42.680;23.324;2023-04-01T13:35:02;3.67;;;3.30;;
13026;SDS011;6580;42.680;23.324;2023-04-01T13:38:04;4.27;;;3.87;;
13026;SDS011;6580;42.680;23.324;2023-04-01T13:41:07;5.27;;;3.53;;
13026;SDS011;6580;42.680;23.324;2023-04-01T13:43:59;4.47;;;3.60;;
13026;SDS011;6580;42.680;23.324;2023-04-01T13:47:02;4.40;;;3.40;;
13026;SDS011;6580;42.680;23.324;2023-04-01T13:56:59;4.43;;;3.70;;
13026;SDS011;6580;42.680;23.324;2023-04-01T14:03:27;6.50;;;4.70;;
13026;SDS011;6580;42.680;23.324;2023-04-01T14:06:33;3.90;;;3.10;;
13026;SDS011;6580;42.680;23.324;2023-04-01T14:09:30;4.67;;;3.53;;
13026;SDS011;6580;42.680;23.324;2023-04-01T14:12:30;4.73;;;4.03;;
13026;SDS011;6580;42.680;23.324;2023-04-01T14:15:23;5.37;;;3.93;;
13026;SDS011;6580;42.680;23.324;2023-04-01T14:18:27;4.40;;;4.00;;
13026;SDS011;6580;42.680;23.324;2023-04-01T14:21:52;4.37;;;3.70;;
13026;SDS011;6580;42.680;23.324;2023-04-01T14:24:46;4.23;;;2.83;;
13026;SDS011;6580;42.680;23.324;2023-04-01T14:27:47;4.57;;;3.30;;
13026;SDS011;6580;42.680;23.324;2023-04-01T14:30:44;4.63;;;2.47;;
13026;SDS011;6580;42.680;23.324;2023-04-01T14:33:45;5.17;;;3.07;;
13026;SDS011;6580;42.680;23.324;2023-04-01T14:40:27;4.03;;;3.40;;
13026;SDS011;6580;42.680;23.324;2023-04-01T14:43:21;5.77;;;3.83;;
13026;SDS011;6580;42.680;23.324;2023-04-01T14:50:03;4.83;;;3.47;;
13026;SDS011;6580;42.680;23.324;2023-04-01T14:53:09;7.53;;;3.70;;
13026;SDS011;6580;42.680;23.324;2023-04-01T14:56:08;5.30;;;3.50;;
13026;SDS011;6580;42.680;23.324;2023-04-01T14:59:30;3.97;;;3.20;;
13026;SDS011;6580;42.680;23.324;2023-04-01T15:02:22;3.60;;;2.93;;
13026;SDS011;6580;42.680;23.324;2023-04-01T15:05:37;3.40;;;2.93;;
13026;SDS011;6580;42.680;23.324;2023-04-01T15:08:37;6.20;;;3.40;;
13026;SDS011;6580;42.680;23.324;2023-04-01T15:11:37;4.77;;;2.77;;
13026;SDS011;6580;42.680;23.324;2023-04-01T15:14:42;3.97;;;3.13;;
13026;SDS011;6580;42.680;23.324;2023-04-01T15:17:43;4.93;;;3.50;;
13026;SDS011;6580;42.680;23.324;2023-04-01T15:23:57;4.50;;;3.60;;
13026;SDS011;6580;42.680;23.324;2023-04-01T15:27:04;6.17;;;3.30;;
13026;SDS011;6580;42.680;23.324;2023-04-01T15:30:14;3.83;;;2.57;;
13026;SDS011;6580;42.680;23.324;2023-04-01T15:33:17;3.83;;;3.13;;
13026;SDS011;6580;42.680;23.324;2023-04-01T15:36:25;3.33;;;2.70;;
13026;SDS011;6580;42.680;23.324;2023-04-01T15:39:19;2.67;;;2.47;;
13026;SDS011;6580;42.680;23.324;2023-04-01T15:42:18;4.30;;;3.00;;
13026;SDS011;6580;42.680;23.324;2023-04-01T15:45:14;3.83;;;2.60;;
13026;SDS011;6580;42.680;23.324;2023-04-01T15:48:13;3.73;;;3.20;;
13026;SDS011;6580;42.680;23.324;2023-04-01T15:51:16;2.87;;;2.60;;
13026;SDS011;6580;42.680;23.324;2023-04-01T15:54:22;2.00;;;1.90;;
13026;SDS011;6580;42.680;23.324;2023-04-01T15:57:14;1.50;;;1.40;;
13026;SDS011;6580;42.680;23.324;2023-04-01T16:00:22;3.40;;;2.47;;
13026;SDS011;6580;42.680;23.324;2023-04-01T16:03:15;5.63;;;2.60;;
13026;SDS011;6580;42.680;23.324;2023-04-01T16:06:11;3.23;;;2.50;;
13026;SDS011;6580;42.680;23.324;2023-04-01T16:09:12;4.03;;;3.30;;
13026;SDS011;6580;42.680;23.324;2023-04-01T16:12:11;3.60;;;3.30;;
13026;SDS011;6580;42.680;23.324;2023-04-01T16:15:06;3.97;;;3.53;;
13026;SDS011;6580;42.680;23.324;2023-04-01T16:18:11;3.57;;;2.83;;
13026;SDS011;6580;42.680;23.324;2023-04-01T16:21:14;4.23;;;3.60;;
13026;SDS011;6580;42.680;23.324;2023-04-01T16:24:17;4.70;;;3.50;;
13026;SDS011;6580;42.680;23.324;2023-04-01T16:27:11;3.43;;;3.13;;
13026;SDS011;6580;42.680;23.324;2023-04-01T16:30:03;4.37;;;3.17;;
13026;SDS011;6580;42.680;23.324;2023-04-01T16:33:11;4.10;;;3.70;;
13026;SDS011;6580;42.680;23.324;2023-04-01T16:36:07;3.70;;;3.23;;
13026;SDS011;6580;42.680;23.324;2023-04-01T16:39:04;4.20;;;3.80;;
13026;SDS011;6580;42.680;23.324;2023-04-01T16:42:06;4.17;;;3.20;;
13026;SDS011;6580;42.680;23.324;2023-04-01T16:45:15;2.90;;;2.70;;
13026;SDS011;6580;42.680;23.324;2023-04-01T16:48:10;4.00;;;2.87;;
13026;SDS011;6580;42.680;23.324;2023-04-01T16:51:00;2.57;;;2.37;;
13026;SDS011;6580;42.680;23.324;2023-04-01T16:54:00;3.10;;;2.80;;
13026;SDS011;6580;42.680;23.324;2023-04-01T16:56:50;2.63;;;2.43;;
13026;SDS011;6580;42.680;23.324;2023-04-01T16:59:46;2.47;;;2.27;;
13026;SDS011;6580;42.680;23.324;2023-04-01T17:02:38;2.93;;;2.50;;
13026;SDS011;6580;42.680;23.324;2023-04-01T17:05:42;2.23;;;2.03;;
13026;SDS011;6580;42.680;23.324;2023-04-01T17:08:42;2.23;;;1.93;;
13026;SDS011;6580;42.680;23.324;2023-04-01T17:11:55;2.00;;;1.90;;
13026;SDS011;6580;42.680;23.324;2023-04-01T17:14:49;2.27;;;2.07;;
13026;SDS011;6580;42.680;23.324;2023-04-01T17:17:42;2.23;;;2.03;;
13026;SDS011;6580;42.680;23.324;2023-04-01T17:20:40;1.97;;;1.77;;
13026;SDS011;6580;42.680;23.324;2023-04-01T17:23:28;2.03;;;1.93;;
13026;SDS011;6580;42.680;23.324;2023-04-01T17:26:25;1.83;;;1.73;;
13026;SDS011;6580;42.680;23.324;2023-04-01T17:29:19;2.47;;;2.30;;
13026;SDS011;6580;42.680;23.324;2023-04-01T17:32:19;2.00;;;1.90;;
13026;SDS011;6580;42.680;23.324;2023-04-01T17:35:16;1.60;;;1.50;;
13026;SDS011;6580;42.680;23.324;2023-04-01T17:38:13;3.77;;;3.43;;
13026;SDS011;6580;42.680;23.324;2023-04-01T17:41:06;2.57;;;2.37;;
13026;SDS011;6580;42.680;23.324;2023-04-01T17:44:05;3.53;;;3.23;;
13026;SDS011;6580;42.680;23.324;2023-04-01T17:47:13;2.37;;;2.27;;
13026;SDS011;6580;42.680;23.324;2023-04-01T17:50:22;2.10;;;2.00;;
13026;SDS011;6580;42.680;23.324;2023-04-01T17:53:13;2.67;;;2.10;;
13026;SDS011;6580;42.680;23.324;2023-04-01T17:56:14;2.20;;;2.10;;
13026;SDS011;6580;42.680;23.324;2023-04-01T17:59:07;2.87;;;2.50;;
13026;SDS011;6580;42.680;23.324;2023-04-01T18:02:03;4.77;;;3.33;;
13026;SDS011;6580;42.680;23.324;2023-04-01T18:08:19;5.03;;;4.53;;
13026;SDS011;6580;42.680;23.324;2023-04-01T18:11:15;4.73;;;4.33;;
13026;SDS011;6580;42.680;23.324;2023-04-01T18:17:27;4.43;;;4.03;;
13026;SDS011;6580;42.680;23.324;2023-04-01T18:20:35;3.87;;;3.57;;
13026;SDS011;6580;42.680;23.324;2023-04-01T18:23:45;3.50;;;3.10;;
13026;SDS011;6580;42.680;23.324;2023-04-01T18:26:37;3.10;;;2.90;;
13026;SDS011;6580;42.680;23.324;2023-04-01T18:29:27;3.50;;;3.20;;
13026;SDS011;6580;42.680;23.324;2023-04-01T18:32:27;3.20;;;2.90;;
13026;SDS011;6580;42.680;23.324;2023-04-01T18:35:27;2.80;;;2.60;;
13026;SDS011;6580;42.680;23.324;2023-04-01T18:38:18;3.17;;;2.87;;
13026;SDS011;6580;42.680;23.324;2023-04-01T18:41:15;3.10;;;2.90;;
13026;SDS011;6580;42.680;23.324;2023-04-01T18:44:16;3.00;;;2.80;;
13026;SDS011;6580;42.680;23.324;2023-04-01T18:47:15;3.20;;;2.90;;
13026;SDS011;6580;42.680;23.324;2023-04-01T18:50:13;3.23;;;2.83;;
13026;SDS011;6580;42.680;23.324;2023-04-01T18:53:13;2.90;;;2.70;;
13026;SDS011;6580;42.680;23.324;2023-04-01T18:56:07;3.47;;;3.17;;
13026;SDS011;6580;42.680;23.324;2023-04-01T18:59:03;3.03;;;2.73;;
13026;SDS011;6580;42.680;23.324;2023-04-01T19:01:55;3.27;;;2.90;;
13026;SDS011;6580;42.680;23.324;2023-04-01T19:04:52;3.77;;;3.23;;
13026;SDS011;6580;42.680;23.324;2023-04-01T19:07:46;5.30;;;3.87;;
13026;SDS011;6580;42.680;23.324;2023-04-01T19:10:37;5.10;;;4.00;;
13026;SDS011;6580;42.680;23.324;2023-04-01T19:13:30;4.00;;;3.43;;
13026;SDS011;6580;42.680;23.324;2023-04-01T19:16:30;3.40;;;3.10;;
13026;SDS011;6580;42.680;23.324;2023-04-01T19:19:35;3.03;;;2.70;;
13026;SDS011;6580;42.680;23.324;2023-04-01T19:22:33;2.37;;;2.27;;
13026;SDS011;6580;42.680;23.324;2023-04-01T19:28:37;3.40;;;2.50;;
13026;SDS011;6580;42.680;23.324;2023-04-01T19:31:40;1.97;;;1.87;;
13026;SDS011;6580;42.680;23.324;2023-04-01T19:34:39;1.70;;;1.63;;